Time;durP1;ratioP1;P1;durP2;ratioP2;P2;SDS_P1;SDS_P2;PMS_P1;PMS_P2;Temp;Humidity;BMP_temperature;BMP_pressure;BME280_temperature;BME280_humidity;BME280_pressure;Samples;Min_cycle;Max_cycle;Signal;HPM_P1;HPM_P2
2021/12/26 00:00:34;;;;;;;0.10;0.10;;;3.00;99.90;;;;;;5071037;28;20025;-68
2021/12/26 00:03:00;;;;;;;0.10;0.10;;;3.00;99.90;;;;;;5053037;28;20032;-67
2021/12/26 00:05:28;;;;;;;0.70;0.65;;;3.00;99.90;;;;;;5069710;28;20055;-67
2021/12/26 00:07:54;;;;;;;0.20;0.20;;;3.00;99.90;;;;;;5071089;28;20492;-68
2021/12/26 00:10:23;;;;;;;0.30;0.30;;;3.00;99.90;;;;;;5053030;28;20032;-68
2021/12/26 00:12:50;;;;;;;0.70;0.70;;;3.00;99.90;;;;;;5069524;28;20041;-67
2021/12/26 00:15:17;;;;;;;0.30;0.30;;;3.00;99.90;;;;;;5069542;28;20035;-68
2021/12/26 00:17:43;;;;;;;0.52;0.52;;;3.10;99.90;;;;;;5069423;28;20042;-68
2021/12/26 00:20:11;;;;;;;0.10;0.10;;;3.10;99.90;;;;;;5074255;28;20036;-68
2021/12/26 00:22:38;;;;;;;0.40;0.40;;;3.00;99.90;;;;;;5072977;28;20024;-68
2021/12/26 00:25:05;;;;;;;1.15;1.10;;;3.00;99.90;;;;;;5073376;28;20043;-68
2021/12/26 00:27:31;;;;;;;0.38;0.38;;;3.00;99.90;;;;;;5074161;28;20086;-68
2021/12/26 00:29:57;;;;;;;0.10;0.10;;;3.00;99.90;;;;;;5074102;28;20063;-68
2021/12/26 00:32:23;;;;;;;0.25;0.25;;;3.10;99.90;;;;;;5074230;28;20064;-68
2021/12/26 00:34:50;;;;;;;0.20;0.20;;;3.10;99.90;;;;;;5073954;28;20040;-67
2021/12/26 00:37:17;;;;;;;0.70;0.70;;;3.20;99.90;;;;;;5073213;28;20468;-68
2021/12/26 00:39:44;;;;;;;1.58;1.48;;;3.30;99.90;;;;;;5072571;28;20075;-68
2021/12/26 00:42:11;;;;;;;0.40;0.40;;;3.20;99.90;;;;;;5072720;28;20028;-68
2021/12/26 00:44:40;;;;;;;0.25;0.25;;;3.20;99.90;;;;;;5072566;28;20435;-68
2021/12/26 00:47:11;;;;;;;0.20;0.20;;;3.20;99.90;;;;;;5073586;28;20055;-68
2021/12/26 00:49:39;;;;;;;0.10;0.10;;;3.30;99.90;;;;;;5073648;28;20089;-68
2021/12/26 00:52:06;;;;;;;0.65;0.65;;;3.20;99.90;;;;;;5074033;28;20055;-68
2021/12/26 00:54:32;;;;;;;0.47;0.47;;;3.20;99.90;;;;;;5073740;28;20477;-68
2021/12/26 00:56:58;;;;;;;0.10;0.10;;;3.20;99.90;;;;;;5073614;28;20093;-68
2021/12/26 00:59:26;;;;;;;0.10;0.10;;;3.20;99.90;;;;;;5072486;28;20025;-68
2021/12/26 01:01:53;;;;;;;0.40;0.40;;;3.30;99.90;;;;;;5073731;28;20111;-67
2021/12/26 01:04:20;;;;;;;0.00;0.00;;;3.30;99.90;;;;;;5073338;28;20065;-67
2021/12/26 01:06:45;;;;;;;0.10;0.10;;;3.20;99.90;;;;;;5071979;28;20085;-67
2021/12/26 01:09:16;;;;;;;0.10;0.10;;;3.20;99.90;;;;;;5073481;28;20115;-67
2021/12/26 01:11:48;;;;;;;1.67;0.65;;;3.10;99.90;;;;;;5072142;28;20508;-67
2021/12/26 01:14:17;;;;;;;0.10;0.10;;;3.10;99.90;;;;;;5072308;28;20032;-67
2021/12/26 01:16:44;;;;;;;0.30;0.30;;;3.10;99.90;;;;;;5071969;28;20036;-67
2021/12/26 01:19:14;;;;;;;0.47;0.45;;;3.00;99.90;;;;;;5073239;28;20032;-68
2021/12/26 01:21:43;;;;;;;0.10;0.10;;;3.00;99.90;;;;;;5073258;28;20370;-68
2021/12/26 01:24:14;;;;;;;0.10;0.10;;;3.00;99.90;;;;;;5073368;28;20028;-68
2021/12/26 01:26:40;;;;;;;0.70;0.70;;;3.10;99.90;;;;;;5071800;28;20024;-68
2021/12/26 01:29:07;;;;;;;0.10;0.10;;;3.10;99.90;;;;;;5071678;28;20082;-67
2021/12/26 01:31:33;;;;;;;2.75;1.65;;;3.10;99.90;;;;;;5071987;28;20039;-67
2021/12/26 01:34:03;;;;;;;0.00;0.00;;;3.10;99.90;;;;;;5072903;28;20044;-67
2021/12/26 01:36:34;;;;;;;0.10;0.10;;;3.00;99.90;;;;;;5071935;28;20036;-68
2021/12/26 01:39:02;;;;;;;0.63;0.60;;;3.00;99.90;;;;;;5071849;28;20075;-68
2021/12/26 01:41:29;;;;;;;0.10;0.10;;;3.00;99.90;;;;;;5071513;28;20489;-68
2021/12/26 01:43:59;;;;;;;0.70;0.63;;;3.00;99.90;;;;;;5071320;28;20256;-68
2021/12/26 01:46:27;;;;;;;0.10;0.10;;;3.00;99.90;;;;;;5071468;28;20127;-68
2021/12/26 01:49:12;;;;;;;0.13;0.13;;;3.00;99.90;;;;;;5071585;28;20036;-68
2021/12/26 01:51:41;;;;;;;0.10;0.10;;;3.00;99.90;;;;;;5072928;28;20046;-68
2021/12/26 01:54:10;;;;;;;1.33;1.23;;;3.00;99.90;;;;;;5071228;28;20082;-68
2021/12/26 01:56:38;;;;;;;1.75;0.85;;;2.90;99.90;;;;;;5072538;28;20032;-68
2021/12/26 01:59:08;;;;;;;0.85;0.85;;;2.90;99.90;;;;;;5072367;28;20500;-69
2021/12/26 02:01:35;;;;;;;0.40;0.40;;;2.90;99.90;;;;;;5072776;28;20025;-67
2021/12/26 02:04:02;;;;;;;0.10;0.10;;;2.80;99.90;;;;;;5072062;28;20358;-70
2021/12/26 02:06:28;;;;;;;0.43;0.43;;;2.80;99.90;;;;;;5071411;28;20477;-68
2021/12/26 02:08:53;;;;;;;0.90;0.90;;;2.80;99.90;;;;;;5072060;28;20093;-67
2021/12/26 02:11:19;;;;;;;1.75;0.75;;;2.80;99.90;;;;;;5071304;28;20056;-67
2021/12/26 02:13:45;;;;;;;0.65;0.65;;;2.70;99.90;;;;;;5071121;28;20082;-68
2021/12/26 02:16:13;;;;;;;0.00;0.00;;;2.70;99.90;;;;;;5072104;28;20047;-68
2021/12/26 02:18:41;;;;;;;0.17;0.17;;;2.70;99.90;;;;;;5054313;28;20032;-69
2021/12/26 02:28:41;;;;;;;0.38;0.38;;;2.70;99.90;;;;;;5071934;28;20032;-68
2021/12/26 02:31:07;;;;;;;0.10;0.10;;;2.80;99.90;;;;;;5071011;28;20031;-68
2021/12/26 02:33:34;;;;;;;0.10;0.10;;;2.80;99.90;;;;;;5072365;28;20431;-68
2021/12/26 02:36:01;;;;;;;0.10;0.10;;;2.80;99.90;;;;;;5070806;28;20496;-69
2021/12/26 02:38:27;;;;;;;0.22;0.22;;;2.80;99.90;;;;;;5072164;28;20123;-69
2021/12/26 02:40:56;;;;;;;0.20;0.20;;;2.90;99.90;;;;;;5069762;28;20112;-69
2021/12/26 02:43:25;;;;;;;0.10;0.10;;;2.80;99.90;;;;;;5053862;28;20048;-69
2021/12/26 02:45:51;;;;;;;0.75;0.75;;;2.80;99.90;;;;;;5070413;28;20111;-69
2021/12/26 02:48:18;;;;;;;0.10;0.10;;;2.90;99.90;;;;;;5070792;28;20081;-69
2021/12/26 02:50:46;;;;;;;0.10;0.10;;;2.80;99.90;;;;;;5070366;28;20060;-66
2021/12/26 02:53:20;;;;;;;0.10;0.10;;;2.80;99.90;;;;;;5070531;28;20107;-66
2021/12/26 02:55:51;;;;;;;6.72;1.15;;;2.90;99.90;;;;;;5054445;28;20078;-68
2021/12/26 02:58:17;;;;;;;0.10;0.10;;;2.90;99.90;;;;;;5070712;28;20036;-68
2021/12/26 03:00:51;;;;;;;0.10;0.10;;;2.80;99.90;;;;;;5070661;28;20064;-68
2021/12/26 03:03:18;;;;;;;0.60;0.60;;;2.80;99.90;;;;;;5071542;28;20477;-68
2021/12/26 03:05:53;;;;;;;0.85;0.43;;;2.80;99.90;;;;;;5071532;28;20045;-68
2021/12/26 03:08:18;;;;;;;0.22;0.22;;;2.80;99.90;;;;;;5071619;28;20033;-69
2021/12/26 03:10:45;;;;;;;0.10;0.10;;;2.90;99.90;;;;;;5071740;28;20115;-69
2021/12/26 03:13:13;;;;;;;0.73;0.73;;;2.90;99.90;;;;;;5071791;28;20503;-69
2021/12/26 03:15:41;;;;;;;0.57;0.57;;;2.90;99.90;;;;;;5071438;28;20045;-68
2021/12/26 03:18:08;;;;;;;0.95;0.95;;;2.90;99.90;;;;;;5070366;28;20112;-69
2021/12/26 03:20:39;;;;;;;0.43;0.43;;;2.90;99.90;;;;;;5070390;28;20037;-68
2021/12/26 03:23:07;;;;;;;0.30;0.30;;;2.80;99.90;;;;;;5071554;28;20401;-68
2021/12/26 03:25:33;;;;;;;0.32;0.32;;;2.80;99.90;;;;;;5071329;28;20052;-68
2021/12/26 03:28:02;;;;;;;0.10;0.10;;;2.80;99.90;;;;;;5053319;28;20036;-68
2021/12/26 03:30:30;;;;;;;0.25;0.25;;;2.90;99.90;;;;;;5053564;28;20033;-68
2021/12/26 03:32:58;;;;;;;0.00;0.00;;;2.90;99.90;;;;;;5071485;28;20037;-68
2021/12/26 03:35:26;;;;;;;0.15;0.15;;;2.90;99.90;;;;;;5053726;28;20119;-68
2021/12/26 03:37:53;;;;;;;0.10;0.10;;;2.70;99.90;;;;;;5071303;28;20036;-68
2021/12/26 03:40:19;;;;;;;4.70;1.80;;;2.80;99.90;;;;;;5069940;28;20041;-69
2021/12/26 03:42:44;;;;;;;0.10;0.10;;;2.70;99.90;;;;;;5071197;28;20039;-68
2021/12/26 03:45:10;;;;;;;0.08;0.08;;;2.80;99.90;;;;;;5071029;28;20413;-69
2021/12/26 03:47:37;;;;;;;1.15;1.10;;;2.80;99.90;;;;;;5069841;28;20493;-69
2021/12/26 03:50:07;;;;;;;0.65;0.65;;;2.80;99.90;;;;;;5069720;28;20041;-69
2021/12/26 03:52:34;;;;;;;0.15;0.15;;;2.80;99.90;;;;;;5071219;28;20501;-69
2021/12/26 03:55:00;;;;;;;0.93;0.82;;;2.80;99.90;;;;;;5073622;28;20055;-69
2021/12/26 03:57:26;;;;;;;0.10;0.10;;;2.90;99.90;;;;;;5075110;28;20469;-69
2021/12/26 03:59:51;;;;;;;0.20;0.20;;;2.90;99.90;;;;;;5074519;28;20127;-69
2021/12/26 04:02:18;;;;;;;0.10;0.10;;;2.90;99.90;;;;;;5074950;28;20029;-68
2021/12/26 04:04:45;;;;;;;0.52;0.52;;;2.90;99.90;;;;;;5074942;28;20039;-69
2021/12/26 04:07:12;;;;;;;0.08;0.08;;;2.90;99.90;;;;;;5074541;28;20040;-69
2021/12/26 04:09:38;;;;;;;0.22;0.22;;;2.90;99.90;;;;;;5073349;28;20396;-68
2021/12/26 04:12:04;;;;;;;0.10;0.10;;;2.90;99.90;;;;;;5073225;28;20111;-68
2021/12/26 04:14:30;;;;;;;0.15;0.15;;;2.90;99.90;;;;;;5074793;28;20028;-69
2021/12/26 04:16:56;;;;;;;6.15;3.35;;;2.90;99.90;;;;;;5074693;28;20527;-69
2021/12/26 04:19:22;;;;;;;0.08;0.08;;;2.90;99.90;;;;;;5074723;28;20032;-69
2021/12/26 04:21:48;;;;;;;0.63;0.63;;;2.90;99.90;;;;;;5074650;28;20068;-69
2021/12/26 04:24:14;;;;;;;0.10;0.10;;;2.80;99.90;;;;;;5073326;28;20043;-69
2021/12/26 04:26:40;;;;;;;0.77;0.77;;;2.80;99.90;;;;;;5074333;28;20481;-69
2021/12/26 04:29:08;;;;;;;0.30;0.30;;;2.80;99.90;;;;;;5072947;28;20132;-69
2021/12/26 04:31:35;;;;;;;0.10;0.10;;;2.70;99.90;;;;;;5056636;28;20033;-69
2021/12/26 04:34:01;;;;;;;0.30;0.30;;;2.70;99.90;;;;;;5074067;28;20029;-69
2021/12/26 04:36:27;;;;;;;0.10;0.10;;;2.70;99.90;;;;;;5074214;28;20398;-69
2021/12/26 04:38:53;;;;;;;0.22;0.22;;;2.80;99.90;;;;;;5074133;28;20040;-69
2021/12/26 04:41:19;;;;;;;0.10;0.10;;;2.70;99.90;;;;;;5074263;28;20056;-69
2021/12/26 04:43:45;;;;;;;0.10;0.10;;;2.70;99.90;;;;;;5072701;28;20040;-68
2021/12/26 04:46:10;;;;;;;1.33;1.25;;;2.70;99.90;;;;;;5073544;28;20045;-69
2021/12/26 04:48:40;;;;;;;0.10;0.10;;;2.70;99.90;;;;;;5074479;28;20061;-68
2021/12/26 04:51:10;;;;;;;0.10;0.10;;;2.70;99.90;;;;;;5073742;28;20523;-69
2021/12/26 04:53:38;;;;;;;0.15;0.15;;;2.70;99.90;;;;;;5074066;28;20123;-69
2021/12/26 04:56:06;;;;;;;16.25;2.70;;;2.60;99.90;;;;;;5072301;28;20028;-69
2021/12/26 04:58:32;;;;;;;0.35;0.35;;;2.60;99.90;;;;;;5073769;28;20501;-68
2021/12/26 05:00:58;;;;;;;0.38;0.38;;;2.60;99.90;;;;;;5073764;28;20032;-68
2021/12/26 05:03:24;;;;;;;0.38;0.38;;;2.60;99.90;;;;;;5073616;28;20040;-68
2021/12/26 05:05:50;;;;;;;0.10;0.10;;;2.70;99.90;;;;;;5072271;28;20044;-68
2021/12/26 05:08:16;;;;;;;0.10;0.10;;;2.80;99.90;;;;;;5072382;28;20027;-68
2021/12/26 05:10:42;;;;;;;0.10;0.10;;;2.70;99.90;;;;;;5072213;28;20451;-68
2021/12/26 05:13:09;;;;;;;0.00;0.00;;;2.80;99.90;;;;;;5073297;28;20059;-68
2021/12/26 05:15:36;;;;;;;0.20;0.20;;;2.90;99.90;;;;;;5073614;28;20029;-68
2021/12/26 05:18:05;;;;;;;1.30;1.20;;;2.80;99.90;;;;;;5072011;28;20131;-68
2021/12/26 05:20:31;;;;;;;0.20;0.20;;;2.80;99.90;;;;;;5072415;28;20016;-68
2021/12/26 05:22:58;;;;;;;1.33;1.30;;;2.80;99.90;;;;;;5073004;28;20060;-68
2021/12/26 05:25:26;;;;;;;0.20;0.20;;;2.80;99.90;;;;;;5055618;28;20032;-68
2021/12/26 05:27:53;;;;;;;0.10;0.10;;;2.80;99.90;;;;;;5073063;28;20059;-68
2021/12/26 05:30:22;;;;;;;0.10;0.10;;;2.80;99.90;;;;;;5073429;28;20044;-68
2021/12/26 05:32:48;;;;;;;0.10;0.10;;;2.80;99.90;;;;;;5055484;28;20485;-68
2021/12/26 05:35:16;;;;;;;0.25;0.25;;;2.80;99.90;;;;;;5071796;28;20042;-68
2021/12/26 05:37:43;;;;;;;0.10;0.10;;;2.80;99.90;;;;;;5071856;28;20116;-68
2021/12/26 05:40:11;;;;;;;1.25;1.17;;;2.80;99.90;;;;;;5071552;28;20045;-68
2021/12/26 05:42:38;;;;;;;0.10;0.10;;;2.80;99.90;;;;;;5071612;28;20465;-68
2021/12/26 05:45:07;;;;;;;0.10;0.10;;;2.80;99.90;;;;;;5071474;28;20041;-68
2021/12/26 05:47:33;;;;;;;0.10;0.10;;;2.80;99.90;;;;;;5072671;28;20072;-68
2021/12/26 05:50:01;;;;;;;0.57;0.57;;;2.80;99.90;;;;;;5072680;28;20036;-68
2021/12/26 05:52:27;;;;;;;0.20;0.20;;;2.80;99.90;;;;;;5072823;28;20024;-68
2021/12/26 05:54:53;;;;;;;0.38;0.38;;;2.80;99.90;;;;;;5072653;28;20052;-68
2021/12/26 05:57:19;;;;;;;1.50;1.40;;;2.90;99.90;;;;;;5071187;28;20525;-68
2021/12/26 05:59:45;;;;;;;0.10;0.10;;;2.90;99.90;;;;;;5072594;28;20108;-68
2021/12/26 06:02:12;;;;;;;0.10;0.10;;;3.00;99.90;;;;;;5071323;28;20031;-68
2021/12/26 06:04:39;;;;;;;0.10;0.10;;;2.90;99.90;;;;;;5071139;28;20039;-68
2021/12/26 06:07:06;;;;;;;0.20;0.20;;;2.90;99.90;;;;;;5072316;28;20052;-68
2021/12/26 06:09:32;;;;;;;0.10;0.10;;;2.90;99.90;;;;;;5071074;28;20108;-68
2021/12/26 06:11:58;;;;;;;0.80;0.80;;;2.90;99.90;;;;;;5072193;28;20060;-68
2021/12/26 06:14:24;;;;;;;0.32;0.32;;;2.90;99.90;;;;;;5072256;28;20504;-68
2021/12/26 06:16:50;;;;;;;0.10;0.10;;;2.80;99.90;;;;;;5071298;28;20542;-68
2021/12/26 06:19:16;;;;;;;0.65;0.65;;;2.70;99.90;;;;;;5054394;28;20110;-68
2021/12/26 06:21:42;;;;;;;1.05;0.85;;;2.70;99.90;;;;;;5072300;28;20044;-68
2021/12/26 06:24:08;;;;;;;0.25;0.25;;;2.70;99.90;;;;;;5071857;28;20040;-68
2021/12/26 06:26:34;;;;;;;0.52;0.52;;;2.70;99.90;;;;;;5072002;28;20036;-68
2021/12/26 06:29:00;;;;;;;1.08;0.88;;;2.70;99.90;;;;;;5070657;28;20035;-68
2021/12/26 06:31:26;;;;;;;0.10;0.10;;;2.70;99.90;;;;;;5070681;28;20028;-68
2021/12/26 06:33:52;;;;;;;0.43;0.43;;;2.70;99.90;;;;;;5072030;28;20028;-68
2021/12/26 06:36:18;;;;;;;0.00;0.00;;;2.60;99.90;;;;;;5070686;28;20085;-68
2021/12/26 06:38:45;;;;;;;0.10;0.10;;;2.60;99.90;;;;;;5072136;28;20436;-68
2021/12/26 06:41:12;;;;;;;0.10;0.10;;;2.60;99.90;;;;;;5071673;28;20384;-68
2021/12/26 06:43:39;;;;;;;0.43;0.43;;;2.50;99.90;;;;;;5070549;28;20761;-68
2021/12/26 06:46:06;;;;;;;1.05;1.02;;;2.50;99.90;;;;;;5070189;28;20408;-68
2021/12/26 06:48:33;;;;;;;0.20;0.20;;;2.50;99.90;;;;;;5070617;28;20029;-68
2021/12/26 06:51:01;;;;;;;2.42;1.23;;;2.60;99.90;;;;;;5070213;28;20039;-68
2021/12/26 06:53:27;;;;;;;0.10;0.10;;;2.70;99.90;;;;;;5070758;28;20492;-68
2021/12/26 06:55:53;;;;;;;0.47;0.47;;;2.70;99.90;;;;;;5071588;28;20028;-68
2021/12/26 06:58:19;;;;;;;2.45;1.55;;;2.60;99.90;;;;;;5071711;28;20093;-68
2021/12/26 07:00:45;;;;;;;0.10;0.10;;;2.60;99.90;;;;;;5071748;28;20025;-68
2021/12/26 07:03:11;;;;;;;0.15;0.15;;;2.50;99.90;;;;;;5070347;28;20060;-69
2021/12/26 07:05:39;;;;;;;0.00;0.00;;;2.60;99.90;;;;;;5071428;28;20071;-68
2021/12/26 07:08:06;;;;;;;0.30;0.30;;;2.60;99.90;;;;;;5071394;28;20112;-68
2021/12/26 07:10:32;;;;;;;0.28;0.28;;;2.60;99.90;;;;;;5070495;28;20040;-68
2021/12/26 07:12:58;;;;;;;0.10;0.10;;;2.60;99.90;;;;;;5071382;28;20731;-68
2021/12/26 07:15:24;;;;;;;0.20;0.20;;;2.60;99.90;;;;;;5071497;28;20055;-68
2021/12/26 07:17:49;;;;;;;0.10;0.10;;;2.60;99.90;;;;;;5053485;28;20040;-68
2021/12/26 07:20:16;;;;;;;1.15;1.15;;;2.50;99.90;;;;;;5070398;28;20024;-68
2021/12/26 07:22:44;;;;;;;0.20;0.20;;;2.60;99.90;;;;;;5070175;28;20162;-69
2021/12/26 07:25:10;;;;;;;1.25;1.15;;;2.60;99.90;;;;;;5069861;28;20487;-69
2021/12/26 07:27:36;;;;;;;0.20;0.20;;;2.60;99.90;;;;;;5072872;28;20376;-68
2021/12/26 07:30:04;;;;;;;0.70;0.70;;;2.50;99.90;;;;;;5075491;28;20032;-68
2021/12/26 07:32:32;;;;;;;1.20;1.17;;;2.50;99.90;;;;;;5073992;28;20024;-68
2021/12/26 07:34:58;;;;;;;0.57;0.45;;;2.60;99.90;;;;;;5074079;28;20032;-68
2021/12/26 07:37:26;;;;;;;0.08;0.08;;;2.60;99.90;;;;;;5073951;28;20031;-68
2021/12/26 07:39:53;;;;;;;0.57;0.57;;;2.60;99.90;;;;;;5074969;28;20040;-68
2021/12/26 07:42:19;;;;;;;0.32;0.32;;;2.50;99.90;;;;;;5073690;28;20420;-69
2021/12/26 07:44:44;;;;;;;0.20;0.20;;;2.60;99.90;;;;;;5073665;28;20044;-68
2021/12/26 07:47:11;;;;;;;0.35;0.35;;;2.60;99.90;;;;;;5074767;28;20080;-68
2021/12/26 07:49:36;;;;;;;3.22;1.80;;;2.70;99.90;;;;;;5073660;28;20032;-68
2021/12/26 07:52:11;;;;;;;0.52;0.52;;;2.70;99.90;;;;;;5074880;28;20032;-68
2021/12/26 07:54:37;;;;;;;2.55;2.35;;;2.70;99.90;;;;;;5058177;28;20078;-68
2021/12/26 07:57:06;;;;;;;0.30;0.30;;;2.70;99.90;;;;;;5073901;28;20029;-68
2021/12/26 07:59:31;;;;;;;1.10;1.05;;;2.60;99.90;;;;;;5073591;28;20059;-68
2021/12/26 08:01:57;;;;;;;0.40;0.40;;;2.60;99.90;;;;;;5073435;28;20064;-68
2021/12/26 08:04:23;;;;;;;0.10;0.10;;;2.70;99.90;;;;;;5073193;28;20135;-69
2021/12/26 08:06:49;;;;;;;3.33;1.85;;;2.70;99.90;;;;;;5074893;28;20353;-69
2021/12/26 08:09:15;;;;;;;0.35;0.35;;;2.70;99.90;;;;;;5074450;28;20075;-69
2021/12/26 08:11:40;;;;;;;1.17;1.10;;;2.70;99.90;;;;;;5073526;28;20116;-68
2021/12/26 08:14:06;;;;;;;0.30;0.30;;;2.80;99.90;;;;;;5074558;28;20387;-68
2021/12/26 08:16:32;;;;;;;0.20;0.20;;;2.80;99.90;;;;;;5073422;28;20028;-68
2021/12/26 08:18:57;;;;;;;0.35;0.35;;;2.80;99.90;;;;;;5074388;28;20035;-68
2021/12/26 08:21:23;;;;;;;4.00;1.13;;;2.80;99.90;;;;;;5073149;28;20035;-68
2021/12/26 08:23:49;;;;;;;0.90;0.75;;;2.80;99.90;;;;;;5074406;28;20067;-68
2021/12/26 08:26:15;;;;;;;0.75;0.75;;;2.80;99.90;;;;;;5074271;28;20064;-68
2021/12/26 08:28:44;;;;;;;1.30;1.27;;;2.80;99.90;;;;;;5074569;28;20070;-68
2021/12/26 08:31:10;;;;;;;0.40;0.40;;;2.90;99.90;;;;;;5074382;28;20430;-68
2021/12/26 08:33:36;;;;;;;3.20;1.70;;;2.90;99.90;;;;;;5072816;28;20576;-68
2021/12/26 08:36:04;;;;;;;0.47;0.47;;;3.00;99.90;;;;;;5074495;28;20100;-68
2021/12/26 08:38:31;;;;;;;1.73;0.85;;;3.00;99.90;;;;;;5073146;28;20032;-68
2021/12/26 08:40:56;;;;;;;0.15;0.15;;;3.00;99.90;;;;;;5072384;28;20052;-68
2021/12/26 08:43:23;;;;;;;1.95;1.23;;;2.90;99.90;;;;;;5074056;28;20458;-68
2021/12/26 08:45:49;;;;;;;0.30;0.30;;;3.00;99.90;;;;;;5072582;28;20041;-68
2021/12/26 08:48:16;;;;;;;0.17;0.17;;;2.90;99.90;;;;;;5072538;28;20036;-68
2021/12/26 08:50:43;;;;;;;0.70;0.70;;;2.90;99.90;;;;;;5072651;28;20111;-68
2021/12/26 08:53:10;;;;;;;0.85;0.85;;;3.00;99.90;;;;;;5073890;28;20177;-68
2021/12/26 08:55:37;;;;;;;0.20;0.20;;;3.10;99.90;;;;;;5072491;28;20028;-68
2021/12/26 08:58:06;;;;;;;0.10;0.10;;;3.10;99.90;;;;;;5072423;28;20032;-68
2021/12/26 09:00:34;;;;;;;0.10;0.10;;;3.10;99.90;;;;;;5055971;28;20024;-68
2021/12/26 09:03:00;;;;;;;0.40;0.40;;;3.10;99.90;;;;;;5072298;28;20100;-69
2021/12/26 09:05:26;;;;;;;0.10;0.10;;;3.00;99.90;;;;;;5071961;28;20124;-68
2021/12/26 09:07:52;;;;;;;0.20;0.20;;;3.00;99.90;;;;;;5073682;28;20040;-68
2021/12/26 09:10:18;;;;;;;0.65;0.65;;;3.00;99.90;;;;;;5073209;28;20385;-68
2021/12/26 09:12:44;;;;;;;1.17;0.95;;;3.10;99.90;;;;;;5072219;28;20029;-68
2021/12/26 09:15:12;;;;;;;1.20;1.10;;;3.10;99.90;;;;;;5072224;28;20103;-69
2021/12/26 09:17:40;;;;;;;1.05;0.95;;;3.20;99.90;;;;;;5072132;28;20036;-69
2021/12/26 09:20:07;;;;;;;2.42;2.25;;;3.20;99.90;;;;;;5073399;28;20385;-69
2021/12/26 09:22:33;;;;;;;1.45;1.35;;;3.20;99.90;;;;;;5055311;28;20114;-69
2021/12/26 09:24:59;;;;;;;1.00;1.00;;;3.20;99.90;;;;;;5072130;28;20051;-69
2021/12/26 09:27:26;;;;;;;1.42;1.33;;;3.20;99.90;;;;;;5071993;28;20040;-68
2021/12/26 09:29:51;;;;;;;0.22;0.22;;;3.20;99.90;;;;;;5073079;28;20393;-68
2021/12/26 09:32:17;;;;;;;1.08;0.63;;;3.20;99.90;;;;;;5072959;28;20029;-68
2021/12/26 09:34:43;;;;;;;1.90;0.98;;;3.30;99.90;;;;;;5071593;28;20071;-68
2021/12/26 09:37:10;;;;;;;0.20;0.20;;;3.30;99.90;;;;;;5073086;28;20048;-68
2021/12/26 09:39:37;;;;;;;1.23;1.17;;;3.20;99.90;;;;;;5071694;28;20033;-68
2021/12/26 09:42:03;;;;;;;0.88;0.85;;;3.20;99.90;;;;;;5071698;28;20024;-68
2021/12/26 09:44:30;;;;;;;0.43;0.43;;;3.30;99.90;;;;;;5072671;28;20036;-68
2021/12/26 09:46:55;;;;;;;0.73;0.73;;;3.30;99.90;;;;;;5071486;28;20128;-69
2021/12/26 09:49:21;;;;;;;0.30;0.30;;;3.30;99.90;;;;;;5055025;28;20123;-68
2021/12/26 09:51:49;;;;;;;0.47;0.45;;;3.40;99.90;;;;;;5072497;28;20055;-68
2021/12/26 09:54:17;;;;;;;1.88;1.77;;;3.40;99.90;;;;;;5071576;28;20465;-68
2021/12/26 09:56:45;;;;;;;3.00;1.30;;;3.40;99.90;;;;;;5072787;28;20110;-68
2021/12/26 09:59:20;;;;;;;1.27;1.20;;;3.40;99.90;;;;;;5071195;28;20114;-68
2021/12/26 10:01:50;;;;;;;0.55;0.55;;;3.40;99.90;;;;;;5071233;28;20028;-68
2021/12/26 10:04:24;;;;;;;1.75;0.93;;;3.40;99.90;;;;;;5070893;28;20382;-68
2021/12/26 10:07:00;;;;;;;0.52;0.52;;;3.50;99.90;;;;;;5072475;28;20116;-68
2021/12/26 10:09:27;;;;;;;1.33;1.02;;;3.50;99.90;;;;;;5072207;28;20364;-68
2021/12/26 10:11:56;;;;;;;1.65;1.20;;;3.50;99.90;;;;;;5072654;28;20131;-68
2021/12/26 10:14:27;;;;;;;0.00;0.00;;;3.50;99.90;;;;;;5070801;28;20026;-69
2021/12/26 10:16:57;;;;;;;2.10;1.97;;;3.50;99.90;;;;;;5072200;28;20024;-68
2021/12/26 10:19:23;;;;;;;0.20;0.20;;;3.50;99.90;;;;;;5072211;28;20517;-69
2021/12/26 10:21:59;;;;;;;0.77;0.77;;;3.50;99.90;;;;;;5071844;28;20120;-69
2021/12/26 10:24:37;;;;;;;0.52;0.35;;;3.50;99.90;;;;;;5071832;28;20393;-68
2021/12/26 10:27:16;;;;;;;0.10;0.10;;;3.50;99.90;;;;;;5070985;28;20033;-68
2021/12/26 10:29:42;;;;;;;0.00;0.00;;;3.60;99.90;;;;;;5072251;28;20028;-68
2021/12/26 10:32:22;;;;;;;0.15;0.15;;;3.60;99.90;;;;;;5072249;28;20040;-68
2021/12/26 10:34:54;;;;;;;0.10;0.10;;;3.50;99.90;;;;;;5070830;28;20035;-68
2021/12/26 10:37:32;;;;;;;3.45;1.20;;;3.50;99.90;;;;;;5070582;28;20032;-68
2021/12/26 10:40:12;;;;;;;2.00;1.88;;;3.50;99.90;;;;;;5070999;28;20029;-68
2021/12/26 10:42:57;;;;;;;0.10;0.10;;;3.60;99.90;;;;;;5071564;28;20472;-68
2021/12/26 10:45:27;;;;;;;0.90;0.90;;;3.60;99.90;;;;;;5070492;28;20079;-68
2021/12/26 10:48:11;;;;;;;1.00;1.00;;;3.50;99.90;;;;;;5070185;28;20080;-68
2021/12/26 10:50:40;;;;;;;0.95;0.95;;;3.50;99.90;;;;;;5071832;28;20040;-68
2021/12/26 10:53:14;;;;;;;0.10;0.10;;;3.50;99.90;;;;;;5070588;28;20431;-68
2021/12/26 10:55:51;;;;;;;5.55;4.75;;;3.50;99.90;;;;;;5070323;28;20037;-68
2021/12/26 10:58:20;;;;;;;0.98;0.88;;;3.30;99.90;;;;;;5054277;28;20032;-68
2021/12/26 11:00:56;;;;;;;1.65;0.50;;;3.40;99.90;;;;;;5070138;28;20040;-68
2021/12/26 11:03:27;;;;;;;0.40;0.40;;;3.40;99.90;;;;;;5069680;28;20055;-69
2021/12/26 11:06:04;;;;;;;0.28;0.28;;;3.60;99.90;;;;;;5071568;28;20029;-69
2021/12/26 11:08:38;;;;;;;0.63;0.63;;;3.80;99.90;;;;;;5070109;28;20036;-69
2021/12/26 11:11:20;;;;;;;0.73;0.73;;;3.80;99.90;;;;;;5071557;28;20473;-69
2021/12/26 11:13:47;;;;;;;1.40;1.30;;;3.80;99.90;;;;;;5070214;28;20086;-69
2021/12/26 11:16:15;;;;;;;2.05;1.95;;;3.90;99.90;;;;;;5070218;28;20035;-69
2021/12/26 11:18:42;;;;;;;1.40;1.30;;;3.90;99.90;;;;;;5070413;28;20032;-69
2021/12/26 11:21:13;;;;;;;0.03;0.03;;;4.10;99.90;;;;;;5070342;28;20035;-69
2021/12/26 11:23:41;;;;;;;0.52;0.52;;;4.10;99.90;;;;;;5071319;28;20032;-69
2021/12/26 11:26:20;;;;;;;0.93;0.85;;;4.20;99.90;;;;;;5071754;28;20067;-68
2021/12/26 11:28:52;;;;;;;0.40;0.40;;;4.10;99.90;;;;;;5054036;28;20485;-68
2021/12/26 11:31:25;;;;;;;0.00;0.00;;;4.10;99.90;;;;;;5054243;28;20045;-68
2021/12/26 11:33:56;;;;;;;10.23;2.83;;;4.00;99.90;;;;;;5071632;28;20370;-68
2021/12/26 11:36:25;;;;;;;;;;;4.00;99.90;;;;;;5070556;28;20404;-69
2021/12/26 11:38:53;;;;;;;1.55;1.38;;;3.90;99.90;;;;;;5069943;28;19946;-69
2021/12/26 11:41:37;;;;;;;1.15;1.15;;;4.10;99.90;;;;;;5070257;28;20040;-69
2021/12/26 11:44:30;;;;;;;4.95;2.72;;;4.10;99.90;;;;;;5070224;28;20072;-69
2021/12/26 11:47:24;;;;;;;0.90;0.90;;;4.20;99.90;;;;;;5071150;28;20044;-70
2021/12/26 11:50:25;;;;;;;1.25;1.17;;;4.40;99.90;;;;;;5070118;28;20045;-69
2021/12/26 11:53:26;;;;;;;2.15;1.85;;;4.40;99.90;;;;;;5071536;28;20044;-68
2021/12/26 11:56:16;;;;;;;2.40;1.00;;;4.40;99.90;;;;;;5070394;28;20117;-68
2021/12/26 11:59:08;;;;;;;0.75;0.75;;;4.40;99.90;;;;;;5069977;28;20075;-69
2021/12/26 12:01:35;;;;;;;;;;;4.50;99.90;;;;;;5071498;28;20043;-69
2021/12/26 12:04:21;;;;;;;0.30;0.30;;;4.30;99.90;;;;;;5069748;28;19919;-69
2021/12/26 12:06:52;;;;;;;1.13;1.10;;;4.20;99.90;;;;;;5070085;28;20047;-69
2021/12/26 12:09:29;;;;;;;0.82;0.82;;;4.30;99.90;;;;;;5069877;28;20032;-69
2021/12/26 12:12:13;;;;;;;0.50;0.50;;;4.50;99.90;;;;;;5071364;28;20047;-69
2021/12/26 12:14:57;;;;;;;0.38;0.38;;;4.50;99.90;;;;;;5072467;28;20497;-69
2021/12/26 12:17:27;;;;;;;3.03;2.25;;;4.20;99.90;;;;;;5074444;28;20621;-68
2021/12/26 12:20:20;;;;;;;0.68;0.68;;;4.00;99.90;;;;;;5074706;28;20492;-68
2021/12/26 12:23:04;;;;;;;1.27;1.17;;;4.30;99.90;;;;;;5073226;28;20504;-69
2021/12/26 12:25:36;;;;;;;2.22;2.03;;;4.40;99.90;;;;;;5074698;28;20047;-69
2021/12/26 12:28:06;;;;;;;4.95;3.20;;;4.40;99.90;;;;;;5074687;28;20032;-69
2021/12/26 12:30:32;;;;;;;0.90;0.90;;;4.40;99.90;;;;;;5074546;28;20041;-69
2021/12/26 12:33:31;;;;;;;0.70;0.65;;;4.30;99.90;;;;;;5073044;28;20036;-69
2021/12/26 12:36:02;;;;;;;3.67;2.80;;;4.20;99.90;;;;;;5074578;28;20032;-69
2021/12/26 12:38:33;;;;;;;0.80;0.80;;;4.30;99.90;;;;;;5074484;28;20441;-69
2021/12/26 12:41:00;;;;;;;3.25;3.03;;;4.40;99.90;;;;;;5074365;28;20382;-69
2021/12/26 12:43:29;;;;;;;0.40;0.40;;;4.40;99.90;;;;;;5074202;28;20032;-69
2021/12/26 12:45:56;;;;;;;0.75;0.75;;;4.30;99.90;;;;;;5072870;28;20072;-69
2021/12/26 12:48:29;;;;;;;2.38;2.03;;;4.10;99.90;;;;;;5074054;28;20033;-68
2021/12/26 12:51:24;;;;;;;0.57;0.47;;;4.30;99.90;;;;;;5074016;28;20350;-69
2021/12/26 12:53:58;;;;;;;2.45;2.22;;;4.30;99.90;;;;;;5072585;28;20059;-69
2021/12/26 12:56:30;;;;;;;1.00;1.00;;;4.20;99.90;;;;;;5072690;28;20033;-69
2021/12/26 12:59:18;;;;;;;0.15;0.15;;;4.30;99.90;;;;;;5074137;28;20457;-69
2021/12/26 13:01:50;;;;;;;0.57;0.57;;;4.20;99.90;;;;;;5073798;28;20090;-69
2021/12/26 13:04:20;;;;;;;4.80;4.10;;;4.10;99.90;;;;;;5073752;28;20083;-69
2021/12/26 13:06:54;;;;;;;2.58;1.15;;;4.20;99.90;;;;;;5072377;28;20039;-69
2021/12/26 13:09:21;;;;;;;1.08;0.73;;;4.30;99.90;;;;;;5072397;28;20385;-69
2021/12/26 13:11:50;;;;;;;1.13;1.08;;;4.30;99.90;;;;;;5072359;28;20427;-69
2021/12/26 13:14:54;;;;;;;1.75;0.82;;;4.30;99.90;;;;;;5073861;28;20021;-69